sensor_id;sensor_type;location;lat;lon;timestamp;temperature;humidity
38237;DHT22;50101;49.438;11.098;2023-02-18T00:00:57;19.20;54.00
38237;DHT22;50101;49.438;11.098;2023-02-18T00:03:25;19.20;54.00
38237;DHT22;50101;49.438;11.098;2023-02-18T00:05:52;19.20;54.00
38237;DHT22;50101;49.438;11.098;2023-02-18T00:08:19;19.20;54.00
38237;DHT22;50101;49.438;11.098;2023-02-18T00:10:47;19.20;54.00
38237;DHT22;50101;49.438;11.098;2023-02-18T00:13:13;19.10;53.90
38237;DHT22;50101;49.438;11.098;2023-02-18T00:15:40;19.10;53.90
38237;DHT22;50101;49.438;11.098;2023-02-18T00:18:07;19.10;53.90
38237;DHT22;50101;49.438;11.098;2023-02-18T00:20:33;19.10;53.90
38237;DHT22;50101;49.438;11.098;2023-02-18T00:23:02;19.10;53.40
38237;DHT22;50101;49.438;11.098;2023-02-18T00:25:29;19.20;54.00
38237;DHT22;50101;49.438;11.098;2023-02-18T00:27:55;19.20;54.00
38237;DHT22;50101;49.438;11.098;2023-02-18T00:30:22;19.20;54.00
38237;DHT22;50101;49.438;11.098;2023-02-18T00:32:49;19.10;53.90
38237;DHT22;50101;49.438;11.098;2023-02-18T00:35:15;19.10;53.90
38237;DHT22;50101;49.438;11.098;2023-02-18T00:37:42;19.10;53.90
38237;DHT22;50101;49.438;11.098;2023-02-18T00:40:09;19.10;53.80
38237;DHT22;50101;49.438;11.098;2023-02-18T00:42:35;19.10;53.90
38237;DHT22;50101;49.438;11.098;2023-02-18T00:45:02;19.10;53.90
38237;DHT22;50101;49.438;11.098;2023-02-18T00:47:29;19.10;53.90
38237;DHT22;50101;49.438;11.098;2023-02-18T00:49:56;19.10;53.90
38237;DHT22;50101;49.438;11.098;2023-02-18T00:52:22;19.10;53.90
38237;DHT22;50101;49.438;11.098;2023-02-18T00:54:49;19.10;53.90
38237;DHT22;50101;49.438;11.098;2023-02-18T00:57:16;17.80;52.80
38237;DHT22;50101;49.438;11.098;2023-02-18T00:59:42;19.10;53.90
38237;DHT22;50101;49.438;11.098;2023-02-18T01:02:09;19.10;53.90
38237;DHT22;50101;49.438;11.098;2023-02-18T01:04:36;19.10;53.90
38237;DHT22;50101;49.438;11.098;2023-02-18T01:07:02;19.00;54.40
38237;DHT22;50101;49.438;11.098;2023-02-18T01:09:29;19.10;53.90
38237;DHT22;50101;49.438;11.098;2023-02-18T01:11:56;19.00;53.30
38237;DHT22;50101;49.438;11.098;2023-02-18T01:14:23;19.00;53.80
38237;DHT22;50101;49.438;11.098;2023-02-18T01:16:49;19.00;53.80
38237;DHT22;50101;49.438;11.098;2023-02-18T01:19:16;19.00;53.80
38237;DHT22;50101;49.438;11.098;2023-02-18T01:21:43;19.00;53.70
38237;DHT22;50101;49.438;11.098;2023-02-18T01:24:09;19.10;53.80
38237;DHT22;50101;49.438;11.098;2023-02-18T01:26:36;19.00;53.70
38237;DHT22;50101;49.438;11.098;2023-02-18T01:29:02;19.00;53.70
38237;DHT22;50101;49.438;11.098;2023-02-18T01:31:29;19.00;53.70
38237;DHT22;50101;49.438;11.098;2023-02-18T01:33:56;19.00;53.70
38237;DHT22;50101;49.438;11.098;2023-02-18T01:36:22;19.00;53.80
38237;DHT22;50101;49.438;11.098;2023-02-18T01:38:49;19.00;53.70
38237;DHT22;50101;49.438;11.098;2023-02-18T01:41:16;19.00;53.70
38237;DHT22;50101;49.438;11.098;2023-02-18T01:43:43;19.00;53.70
38237;DHT22;50101;49.438;11.098;2023-02-18T01:46:14;19.00;53.70
38237;DHT22;50101;49.438;11.098;2023-02-18T01:48:56;19.00;53.70
38237;DHT22;50101;49.438;11.098;2023-02-18T01:51:27;19.00;53.70
38237;DHT22;50101;49.438;11.098;2023-02-18T01:57:04;19.00;53.70
38237;DHT22;50101;49.438;11.098;2023-02-18T01:59:44;19.00;53.80
38237;DHT22;50101;49.438;11.098;2023-02-18T02:02:15;19.00;53.70
38237;DHT22;50101;49.438;11.098;2023-02-18T02:04:43;19.00;53.70
38237;DHT22;50101;49.438;11.098;2023-02-18T02:07:10;19.00;53.70
38237;DHT22;50101;49.438;11.098;2023-02-18T02:09:38;19.00;53.70
38237;DHT22;50101;49.438;11.098;2023-02-18T02:12:32;19.00;53.20
38237;DHT22;50101;49.438;11.098;2023-02-18T02:15:23;19.00;53.70
38237;DHT22;50101;49.438;11.098;2023-02-18T02:18:18;19.00;53.70
38237;DHT22;50101;49.438;11.098;2023-02-18T02:35:11;19.00;53.70
38237;DHT22;50101;49.438;11.098;2023-02-18T02:38:15;18.90;54.20
38237;DHT22;50101;49.438;11.098;2023-02-18T02:40:37;19.00;53.70
38237;DHT22;50101;49.438;11.098;2023-02-18T02:46:37;19.00;53.70
38237;DHT22;50101;49.438;11.098;2023-02-18T02:51:59;18.90;53.60
38237;DHT22;50101;49.438;11.098;2023-02-18T02:54:28;19.00;53.70
38237;DHT22;50101;49.438;11.098;2023-02-18T02:59:58;18.90;53.60
38237;DHT22;50101;49.438;11.098;2023-02-18T03:02:52;18.90;53.60
38237;DHT22;50101;49.438;11.098;2023-02-18T03:08:40;18.90;53.60
38237;DHT22;50101;49.438;11.098;2023-02-18T03:11:12;18.90;53.60
38237;DHT22;50101;49.438;11.098;2023-02-18T03:14:02;18.90;53.10
38237;DHT22;50101;49.438;11.098;2023-02-18T03:19:23;18.90;53.70
38237;DHT22;50101;49.438;11.098;2023-02-18T03:24:33;18.90;53.60
38237;DHT22;50101;49.438;11.098;2023-02-18T03:27:15;18.90;53.60
38237;DHT22;50101;49.438;11.098;2023-02-18T03:29:45;18.90;53.60
38237;DHT22;50101;49.438;11.098;2023-02-18T03:32:16;18.90;53.60
38237;DHT22;50101;49.438;11.098;2023-02-18T03:34:48;18.90;53.60
38237;DHT22;50101;49.438;11.098;2023-02-18T03:37:15;18.90;53.70
38237;DHT22;50101;49.438;11.098;2023-02-18T03:39:47;18.90;53.60
38237;DHT22;50101;49.438;11.098;2023-02-18T03:42:16;18.80;53.60
38237;DHT22;50101;49.438;11.098;2023-02-18T03:44:44;18.90;53.60
38237;DHT22;50101;49.438;11.098;2023-02-18T03:47:11;18.90;53.60
38237;DHT22;50101;49.438;11.098;2023-02-18T03:49:38;18.80;53.60
38237;DHT22;50101;49.438;11.098;2023-02-18T03:52:05;18.90;53.70
38237;DHT22;50101;49.438;11.098;2023-02-18T03:54:31;18.90;53.60
38237;DHT22;50101;49.438;11.098;2023-02-18T03:56:58;18.80;53.60
38237;DHT22;50101;49.438;11.098;2023-02-18T03:59:24;18.80;53.60
38237;DHT22;50101;49.438;11.098;2023-02-18T04:01:51;18.80;53.60
38237;DHT22;50101;49.438;11.098;2023-02-18T04:04:17;18.80;53.60
38237;DHT22;50101;49.438;11.098;2023-02-18T04:06:44;18.80;53.60
38237;DHT22;50101;49.438;11.098;2023-02-18T04:09:11;18.80;53.70
38237;DHT22;50101;49.438;11.098;2023-02-18T04:11:39;18.80;53.60
38237;DHT22;50101;49.438;11.098;2023-02-18T04:14:07;18.80;53.60
38237;DHT22;50101;49.438;11.098;2023-02-18T04:16:33;18.80;53.60
38237;DHT22;50101;49.438;11.098;2023-02-18T04:19:00;18.80;53.60
38237;DHT22;50101;49.438;11.098;2023-02-18T04:21:27;18.80;53.60
38237;DHT22;50101;49.438;11.098;2023-02-18T04:23:53;18.80;53.60
38237;DHT22;50101;49.438;11.098;2023-02-18T04:26:20;18.80;53.60
38237;DHT22;50101;49.438;11.098;2023-02-18T04:28:46;18.80;53.70
38237;DHT22;50101;49.438;11.098;2023-02-18T04:31:13;18.80;53.70
38237;DHT22;50101;49.438;11.098;2023-02-18T04:33:41;18.80;53.70
38237;DHT22;50101;49.438;11.098;2023-02-18T04:36:08;18.80;53.70
38237;DHT22;50101;49.438;11.098;2023-02-18T04:38:36;18.80;53.70
38237;DHT22;50101;49.438;11.098;2023-02-18T04:41:02;18.80;54.30
38237;DHT22;50101;49.438;11.098;2023-02-18T04:43:29;18.80;53.70
38237;DHT22;50101;49.438;11.098;2023-02-18T04:45:56;18.80;54.30
38237;DHT22;50101;49.438;11.098;2023-02-18T04:48:22;18.80;53.70
38237;DHT22;50101;49.438;11.098;2023-02-18T04:50:49;18.80;53.70
38237;DHT22;50101;49.438;11.098;2023-02-18T04:53:16;18.80;53.70
38237;DHT22;50101;49.438;11.098;2023-02-18T04:55:42;18.80;53.70
38237;DHT22;50101;49.438;11.098;2023-02-18T04:58:09;18.80;53.70
38237;DHT22;50101;49.438;11.098;2023-02-18T05:00:36;18.80;53.70
38237;DHT22;50101;49.438;11.098;2023-02-18T05:03:02;18.80;53.20
38237;DHT22;50101;49.438;11.098;2023-02-18T05:05:29;18.80;53.70
38237;DHT22;50101;49.438;11.098;2023-02-18T05:07:56;18.80;53.70
38237;DHT22;50101;49.438;11.098;2023-02-18T05:10:23;18.80;53.70
38237;DHT22;50101;49.438;11.098;2023-02-18T05:12:49;18.80;53.70
38237;DHT22;50101;49.438;11.098;2023-02-18T05:15:16;18.80;53.70
38237;DHT22;50101;49.438;11.098;2023-02-18T05:17:43;18.80;53.70
38237;DHT22;50101;49.438;11.098;2023-02-18T05:20:10;18.70;53.60
38237;DHT22;50101;49.438;11.098;2023-02-18T05:22:37;18.70;53.60
38237;DHT22;50101;49.438;11.098;2023-02-18T05:25:04;18.80;53.70
38237;DHT22;50101;49.438;11.098;2023-02-18T05:27:31;18.70;53.60
38237;DHT22;50101;49.438;11.098;2023-02-18T05:29:58;18.70;53.60
38237;DHT22;50101;49.438;11.098;2023-02-18T05:32:24;18.80;53.20
38237;DHT22;50101;49.438;11.098;2023-02-18T05:34:51;18.70;53.60
38237;DHT22;50101;49.438;11.098;2023-02-18T05:37:18;18.70;53.60
38237;DHT22;50101;49.438;11.098;2023-02-18T05:39:44;18.70;53.60
38237;DHT22;50101;49.438;11.098;2023-02-18T05:42:11;18.70;53.60
38237;DHT22;50101;49.438;11.098;2023-02-18T05:44:38;18.70;53.60
38237;DHT22;50101;49.438;11.098;2023-02-18T05:47:10;18.70;53.70
38237;DHT22;50101;49.438;11.098;2023-02-18T05:49:38;18.70;53.70
38237;DHT22;50101;49.438;11.098;2023-02-18T05:52:06;18.70;53.60
38237;DHT22;50101;49.438;11.098;2023-02-18T05:54:33;18.70;53.70
38237;DHT22;50101;49.438;11.098;2023-02-18T05:57:00;18.70;53.60
38237;DHT22;50101;49.438;11.098;2023-02-18T05:59:27;18.70;53.60
38237;DHT22;50101;49.438;11.098;2023-02-18T06:01:55;18.70;53.60
38237;DHT22;50101;49.438;11.098;2023-02-18T06:04:22;18.70;53.70
38237;DHT22;50101;49.438;11.098;2023-02-18T06:06:49;18.70;53.60
38237;DHT22;50101;49.438;11.098;2023-02-18T06:09:15;18.70;53.60
38237;DHT22;50101;49.438;11.098;2023-02-18T06:11:42;18.70;53.60
38237;DHT22;50101;49.438;11.098;2023-02-18T06:14:09;18.70;53.60
38237;DHT22;50101;49.438;11.098;2023-02-18T06:16:36;18.70;53.70
38237;DHT22;50101;49.438;11.098;2023-02-18T06:19:03;18.70;53.60
38237;DHT22;50101;49.438;11.098;2023-02-18T06:21:30;18.70;53.70
38237;DHT22;50101;49.438;11.098;2023-02-18T06:23:57;18.70;53.70
38237;DHT22;50101;49.438;11.098;2023-02-18T06:26:24;18.70;53.70
38237;DHT22;50101;49.438;11.098;2023-02-18T06:28:50;18.80;53.60
38237;DHT22;50101;49.438;11.098;2023-02-18T06:31:17;18.80;53.90
38237;DHT22;50101;49.438;11.098;2023-02-18T06:33:44;18.80;53.80
38237;DHT22;50101;49.438;11.098;2023-02-18T06:36:11;18.80;53.80
38237;DHT22;50101;49.438;11.098;2023-02-18T06:38:40;18.80;53.80
38237;DHT22;50101;49.438;11.098;2023-02-18T06:41:08;18.80;53.80
38237;DHT22;50101;49.438;11.098;2023-02-18T06:43:35;18.70;53.80
38237;DHT22;50101;49.438;11.098;2023-02-18T06:46:03;18.80;53.90
38237;DHT22;50101;49.438;11.098;2023-02-18T06:48:30;18.70;53.80
38237;DHT22;50101;49.438;11.098;2023-02-18T06:50:57;18.70;53.90
38237;DHT22;50101;49.438;11.098;2023-02-18T06:53:24;18.70;53.90
38237;DHT22;50101;49.438;11.098;2023-02-18T06:55:51;18.70;54.10
38237;DHT22;50101;49.438;11.098;2023-02-18T06:58:18;18.70;54.00
38237;DHT22;50101;49.438;11.098;2023-02-18T07:00:44;18.70;54.00
38237;DHT22;50101;49.438;11.098;2023-02-18T07:03:12;18.70;54.00
38237;DHT22;50101;49.438;11.098;2023-02-18T07:05:40;18.70;54.00
38237;DHT22;50101;49.438;11.098;2023-02-18T07:08:07;18.70;54.00
38237;DHT22;50101;49.438;11.098;2023-02-18T07:10:33;18.70;54.00
38237;DHT22;50101;49.438;11.098;2023-02-18T07:13:00;18.70;54.10
38237;DHT22;50101;49.438;11.098;2023-02-18T07:15:27;18.70;54.10
38237;DHT22;50101;49.438;11.098;2023-02-18T07:17:54;18.70;54.10
38237;DHT22;50101;49.438;11.098;2023-02-18T07:20:22;18.70;54.10
38237;DHT22;50101;49.438;11.098;2023-02-18T07:22:49;18.70;54.10
38237;DHT22;50101;49.438;11.098;2023-02-18T07:25:16;18.70;54.20
38237;DHT22;50101;49.438;11.098;2023-02-18T07:27:43;18.70;54.10
38237;DHT22;50101;49.438;11.098;2023-02-18T07:30:10;18.80;54.10
38237;DHT22;50101;49.438;11.098;2023-02-18T07:32:36;18.70;54.10
38237;DHT22;50101;49.438;11.098;2023-02-18T07:35:04;18.80;54.20
38237;DHT22;50101;49.438;11.098;2023-02-18T07:37:31;18.80;54.20
38237;DHT22;50101;49.438;11.098;2023-02-18T07:39:57;18.70;54.10
38237;DHT22;50101;49.438;11.098;2023-02-18T07:42:24;18.80;54.20
38237;DHT22;50101;49.438;11.098;2023-02-18T07:44:51;18.80;54.20
38237;DHT22;50101;49.438;11.098;2023-02-18T07:47:17;18.80;54.30
38237;DHT22;50101;49.438;11.098;2023-02-18T07:49:45;18.80;54.30
38237;DHT22;50101;49.438;11.098;2023-02-18T07:52:13;18.80;54.30
38237;DHT22;50101;49.438;11.098;2023-02-18T07:54:40;18.70;54.30
38237;DHT22;50101;49.438;11.098;2023-02-18T07:57:06;18.80;54.40
38237;DHT22;50101;49.438;11.098;2023-02-18T07:59:33;18.80;54.40
38237;DHT22;50101;49.438;11.098;2023-02-18T08:02:00;18.80;54.30
38237;DHT22;50101;49.438;11.098;2023-02-18T08:04:27;18.80;54.40
38237;DHT22;50101;49.438;11.098;2023-02-18T08:06:53;18.80;54.40
38237;DHT22;50101;49.438;11.098;2023-02-18T08:09:20;18.80;54.40
38237;DHT22;50101;49.438;11.098;2023-02-18T08:11:47;18.80;53.80
38237;DHT22;50101;49.438;11.098;2023-02-18T08:14:14;18.80;54.40
38237;DHT22;50101;49.438;11.098;2023-02-18T08:16:40;18.80;54.30
38237;DHT22;50101;49.438;11.098;2023-02-18T08:19:07;18.80;54.40
38237;DHT22;50101;49.438;11.098;2023-02-18T08:21:34;18.80;54.40
38237;DHT22;50101;49.438;11.098;2023-02-18T08:24:00;18.80;54.40
38237;DHT22;50101;49.438;11.098;2023-02-18T08:26:28;18.80;54.40
38237;DHT22;50101;49.438;11.098;2023-02-18T08:28:54;18.80;54.70
38237;DHT22;50101;49.438;11.098;2023-02-18T08:31:32;18.80;54.60
38237;DHT22;50101;49.438;11.098;2023-02-18T08:34:00;18.80;54.60
38237;DHT22;50101;49.438;11.098;2023-02-18T08:36:27;18.90;55.30
38237;DHT22;50101;49.438;11.098;2023-02-18T08:38:54;18.90;55.20
38237;DHT22;50101;49.438;11.098;2023-02-18T08:41:21;19.00;55.40
38237;DHT22;50101;49.438;11.098;2023-02-18T08:43:48;19.00;55.40
38237;DHT22;50101;49.438;11.098;2023-02-18T08:46:16;19.00;55.40
38237;DHT22;50101;49.438;11.098;2023-02-18T08:49:00;18.90;55.60
38237;DHT22;50101;49.438;11.098;2023-02-18T08:51:27;18.90;55.70
38237;DHT22;50101;49.438;11.098;2023-02-18T08:53:54;18.90;55.90
38237;DHT22;50101;49.438;11.098;2023-02-18T08:56:20;18.90;55.90
38237;DHT22;50101;49.438;11.098;2023-02-18T08:58:47;18.90;56.00
38237;DHT22;50101;49.438;11.098;2023-02-18T09:01:14;18.90;55.90
38237;DHT22;50101;49.438;11.098;2023-02-18T09:03:40;18.90;55.90
38237;DHT22;50101;49.438;11.098;2023-02-18T09:06:07;19.00;56.00
38237;DHT22;50101;49.438;11.098;2023-02-18T09:08:34;19.00;56.00
38237;DHT22;50101;49.438;11.098;2023-02-18T09:11:02;19.00;56.10
38237;DHT22;50101;49.438;11.098;2023-02-18T09:13:31;19.10;56.10
38237;DHT22;50101;49.438;11.098;2023-02-18T09:16:04;19.10;56.30
38237;DHT22;50101;49.438;11.098;2023-02-18T09:18:31;19.10;56.30
38237;DHT22;50101;49.438;11.098;2023-02-18T09:20:59;19.00;56.30
38237;DHT22;50101;49.438;11.098;2023-02-18T09:23:28;19.00;56.40
38237;DHT22;50101;49.438;11.098;2023-02-18T09:25:55;19.10;56.40
38237;DHT22;50101;49.438;11.098;2023-02-18T09:28:22;19.00;56.70
38237;DHT22;50101;49.438;11.098;2023-02-18T09:30:49;19.00;56.80
38237;DHT22;50101;49.438;11.098;2023-02-18T09:33:17;18.30;56.30
38237;DHT22;50101;49.438;11.098;2023-02-18T09:35:45;18.90;56.30
38237;DHT22;50101;49.438;11.098;2023-02-18T09:38:14;19.00;56.30
38237;DHT22;50101;49.438;11.098;2023-02-18T09:40:45;19.00;56.00
38237;DHT22;50101;49.438;11.098;2023-02-18T09:43:22;19.10;55.50
38237;DHT22;50101;49.438;11.098;2023-02-18T09:45:51;19.20;56.10
38237;DHT22;50101;49.438;11.098;2023-02-18T09:48:21;19.30;56.20
38237;DHT22;50101;49.438;11.098;2023-02-18T09:50:52;19.30;56.20
38237;DHT22;50101;49.438;11.098;2023-02-18T09:53:21;19.30;56.10
38237;DHT22;50101;49.438;11.098;2023-02-18T09:55:48;19.30;55.90
38237;DHT22;50101;49.438;11.098;2023-02-18T09:58:18;19.40;56.00
38237;DHT22;50101;49.438;11.098;2023-02-18T10:00:55;19.30;55.70
38237;DHT22;50101;49.438;11.098;2023-02-18T10:03:25;19.30;56.10
38237;DHT22;50101;49.438;11.098;2023-02-18T10:06:05;19.30;56.20
38237;DHT22;50101;49.438;11.098;2023-02-18T10:08:41;19.30;56.20
38237;DHT22;50101;49.438;11.098;2023-02-18T10:11:16;19.30;55.50
38237;DHT22;50101;49.438;11.098;2023-02-18T10:13:44;19.30;56.00
38237;DHT22;50101;49.438;11.098;2023-02-18T10:16:17;19.30;55.90
38237;DHT22;50101;49.438;11.098;2023-02-18T10:18:47;19.30;55.80
38237;DHT22;50101;49.438;11.098;2023-02-18T10:21:18;19.30;55.70
38237;DHT22;50101;49.438;11.098;2023-02-18T10:23:58;19.40;55.80
38237;DHT22;50101;49.438;11.098;2023-02-18T10:26:26;19.40;55.60
38237;DHT22;50101;49.438;11.098;2023-02-18T10:28:54;19.30;55.50
38237;DHT22;50101;49.438;11.098;2023-02-18T10:31:30;19.40;54.90
38237;DHT22;50101;49.438;11.098;2023-02-18T10:36:54;19.40;55.40
38237;DHT22;50101;49.438;11.098;2023-02-18T10:41:53;19.40;55.30
38237;DHT22;50101;49.438;11.098;2023-02-18T10:52:17;19.40;55.10
38237;DHT22;50101;49.438;11.098;2023-02-18T10:57:25;19.40;54.90
38237;DHT22;50101;49.438;11.098;2023-02-18T11:02:45;19.40;54.90
38237;DHT22;50101;49.438;11.098;2023-02-18T11:05:22;19.40;54.90
38237;DHT22;50101;49.438;11.098;2023-02-18T11:07:51;19.40;54.90
38237;DHT22;50101;49.438;11.098;2023-02-18T11:10:24;19.40;54.90
38237;DHT22;50101;49.438;11.098;2023-02-18T11:12:57;19.40;54.90
38237;DHT22;50101;49.438;11.098;2023-02-18T11:15:27;19.40;54.90
38237;DHT22;50101;49.438;11.098;2023-02-18T11:17:56;19.40;54.90
38237;DHT22;50101;49.438;11.098;2023-02-18T11:20:32;19.40;54.90
38237;DHT22;50101;49.438;11.098;2023-02-18T11:25:33;19.40;54.90
38237;DHT22;50101;49.438;11.098;2023-02-18T11:28:06;19.40;54.80
38237;DHT22;50101;49.438;11.098;2023-02-18T11:30:53;19.40;54.70
38237;DHT22;50101;49.438;11.098;2023-02-18T11:33:32;19.40;54.70
38237;DHT22;50101;49.438;11.098;2023-02-18T11:36:04;19.40;54.60
38237;DHT22;50101;49.438;11.098;2023-02-18T11:38:49;19.40;54.70
38237;DHT22;50101;49.438;11.098;2023-02-18T11:41:19;19.40;54.60
38237;DHT22;50101;49.438;11.098;2023-02-18T11:43:51;19.40;54.60
38237;DHT22;50101;49.438;11.098;2023-02-18T11:46:22;19.50;54.70
38237;DHT22;50101;49.438;11.098;2023-02-18T11:48:49;19.50;54.60
38237;DHT22;50101;49.438;11.098;2023-02-18T11:54:26;19.50;54.50
38237;DHT22;50101;49.438;11.098;2023-02-18T11:59:29;19.50;54.50
38237;DHT22;50101;49.438;11.098;2023-02-18T12:04:42;19.50;54.50
38237;DHT22;50101;49.438;11.098;2023-02-18T12:07:30;19.50;54.40
38237;DHT22;50101;49.438;11.098;2023-02-18T12:10:04;19.50;54.40
38237;DHT22;50101;49.438;11.098;2023-02-18T12:15:19;19.50;54.60
38237;DHT22;50101;49.438;11.098;2023-02-18T12:23:56;19.50;54.30
38237;DHT22;50101;49.438;11.098;2023-02-18T12:26:28;19.50;54.40
38237;DHT22;50101;49.438;11.098;2023-02-18T12:31:40;19.50;54.50
38237;DHT22;50101;49.438;11.098;2023-02-18T12:34:22;19.50;54.50
38237;DHT22;50101;49.438;11.098;2023-02-18T12:39:48;19.40;54.40
38237;DHT22;50101;49.438;11.098;2023-02-18T12:42:25;19.50;54.30
38237;DHT22;50101;49.438;11.098;2023-02-18T12:48:11;19.50;54.50
38237;DHT22;50101;49.438;11.098;2023-02-18T12:56:51;19.50;54.50
38237;DHT22;50101;49.438;11.098;2023-02-18T13:04:59;19.50;54.40
38237;DHT22;50101;49.438;11.098;2023-02-18T13:10:29;19.50;54.40
38237;DHT22;50101;49.438;11.098;2023-02-18T13:13:07;19.40;54.40
38237;DHT22;50101;49.438;11.098;2023-02-18T13:15:45;19.50;54.50
38237;DHT22;50101;49.438;11.098;2023-02-18T13:18:19;19.50;54.30
38237;DHT22;50101;49.438;11.098;2023-02-18T13:20:54;19.40;54.40
38237;DHT22;50101;49.438;11.098;2023-02-18T13:23:25;19.40;54.40
38237;DHT22;50101;49.438;11.098;2023-02-18T13:25:59;19.40;54.50
38237;DHT22;50101;49.438;11.098;2023-02-18T13:28:37;19.40;54.50
38237;DHT22;50101;49.438;11.098;2023-02-18T13:34:11;19.40;54.30
38237;DHT22;50101;49.438;11.098;2023-02-18T13:39:19;19.40;54.50
38237;DHT22;50101;49.438;11.098;2023-02-18T13:41:48;19.40;54.50
38237;DHT22;50101;49.438;11.098;2023-02-18T13:46:51;19.40;54.40
38237;DHT22;50101;49.438;11.098;2023-02-18T13:49:24;19.40;54.40
38237;DHT22;50101;49.438;11.098;2023-02-18T13:51:54;19.40;54.00
38237;DHT22;50101;49.438;11.098;2023-02-18T13:54:30;19.30;54.40
38237;DHT22;50101;49.438;11.098;2023-02-18T13:57:06;19.40;54.50
38237;DHT22;50101;49.438;11.098;2023-02-18T13:59:40;19.30;54.40
38237;DHT22;50101;49.438;11.098;2023-02-18T14:02:31;19.30;54.40
38237;DHT22;50101;49.438;11.098;2023-02-18T14:05:18;19.40;54.40
38237;DHT22;50101;49.438;11.098;2023-02-18T14:19:31;19.40;54.40
38237;DHT22;50101;49.438;11.098;2023-02-18T14:22:30;19.30;54.30
38237;DHT22;50101;49.438;11.098;2023-02-18T14:27:30;19.40;54.50
38237;DHT22;50101;49.438;11.098;2023-02-18T14:32:59;19.30;53.80
38237;DHT22;50101;49.438;11.098;2023-02-18T14:38:14;19.30;54.30
38237;DHT22;50101;49.438;11.098;2023-02-18T14:44:03;19.30;54.40
38237;DHT22;50101;49.438;11.098;2023-02-18T14:46:53;19.40;54.50
38237;DHT22;50101;49.438;11.098;2023-02-18T14:49:39;19.30;54.40
38237;DHT22;50101;49.438;11.098;2023-02-18T14:52:30;19.30;54.30
38237;DHT22;50101;49.438;11.098;2023-02-18T14:55:00;19.30;54.40
38237;DHT22;50101;49.438;11.098;2023-02-18T14:57:45;19.30;54.40
38237;DHT22;50101;49.438;11.098;2023-02-18T15:00:22;19.30;54.30
38237;DHT22;50101;49.438;11.098;2023-02-18T15:02:52;19.30;54.40
38237;DHT22;50101;49.438;11.098;2023-02-18T15:07:54;19.30;54.30
38237;DHT22;50101;49.438;11.098;2023-02-18T15:10:21;19.30;54.40
38237;DHT22;50101;49.438;11.098;2023-02-18T15:12:51;19.30;54.30
38237;DHT22;50101;49.438;11.098;2023-02-18T15:15:18;19.30;54.40
38237;DHT22;50101;49.438;11.098;2023-02-18T15:17:46;19.30;54.30
38237;DHT22;50101;49.438;11.098;2023-02-18T15:20:14;19.30;53.80
38237;DHT22;50101;49.438;11.098;2023-02-18T15:22:42;19.30;54.30
38237;DHT22;50101;49.438;11.098;2023-02-18T15:25:11;19.30;54.30
38237;DHT22;50101;49.438;11.098;2023-02-18T15:27:42;19.30;54.40
38237;DHT22;50101;49.438;11.098;2023-02-18T15:30:17;19.30;54.40
38237;DHT22;50101;49.438;11.098;2023-02-18T15:32:52;19.30;54.30
38237;DHT22;50101;49.438;11.098;2023-02-18T15:35:21;19.30;54.30
38237;DHT22;50101;49.438;11.098;2023-02-18T15:37:54;19.30;54.30
38237;DHT22;50101;49.438;11.098;2023-02-18T15:40:23;19.30;54.30
38237;DHT22;50101;49.438;11.098;2023-02-18T15:42:52;19.30;54.30
38237;DHT22;50101;49.438;11.098;2023-02-18T15:45:24;19.30;54.30
38237;DHT22;50101;49.438;11.098;2023-02-18T15:47:56;19.30;54.30
38237;DHT22;50101;49.438;11.098;2023-02-18T15:50:27;19.30;54.30
38237;DHT22;50101;49.438;11.098;2023-02-18T15:52:57;19.30;54.30
38237;DHT22;50101;49.438;11.098;2023-02-18T15:55:34;19.30;54.30
38237;DHT22;50101;49.438;11.098;2023-02-18T15:58:04;19.30;54.30
38237;DHT22;50101;49.438;11.098;2023-02-18T16:00:35;19.30;54.30
38237;DHT22;50101;49.438;11.098;2023-02-18T16:05:40;19.30;54.20
38237;DHT22;50101;49.438;11.098;2023-02-18T16:08:23;19.30;54.20
38237;DHT22;50101;49.438;11.098;2023-02-18T16:10:56;19.20;54.20
38237;DHT22;50101;49.438;11.098;2023-02-18T16:13:28;19.30;54.30
38237;DHT22;50101;49.438;11.098;2023-02-18T16:15:57;19.20;54.20
38237;DHT22;50101;49.438;11.098;2023-02-18T16:18:29;19.20;54.30
38237;DHT22;50101;49.438;11.098;2023-02-18T16:21:03;19.20;54.20
38237;DHT22;50101;49.438;11.098;2023-02-18T16:23:39;19.20;54.20
38237;DHT22;50101;49.438;11.098;2023-02-18T16:28:50;19.20;54.20
38237;DHT22;50101;49.438;11.098;2023-02-18T16:31:17;19.20;54.20
38237;DHT22;50101;49.438;11.098;2023-02-18T16:33:48;19.20;54.20
38237;DHT22;50101;49.438;11.098;2023-02-18T16:36:15;19.20;54.30
38237;DHT22;50101;49.438;11.098;2023-02-18T16:38:43;19.20;54.20
38237;DHT22;50101;49.438;11.098;2023-02-18T16:41:12;19.20;54.20
38237;DHT22;50101;49.438;11.098;2023-02-18T16:43:41;19.20;54.30
38237;DHT22;50101;49.438;11.098;2023-02-18T16:46:16;19.20;54.30
38237;DHT22;50101;49.438;11.098;2023-02-18T16:48:52;19.20;54.30
38237;DHT22;50101;49.438;11.098;2023-02-18T16:51:30;19.30;54.30
38237;DHT22;50101;49.438;11.098;2023-02-18T16:53:58;19.20;54.30
38237;DHT22;50101;49.438;11.098;2023-02-18T16:56:26;19.20;54.20
38237;DHT22;50101;49.438;11.098;2023-02-18T16:58:55;19.20;54.20
38237;DHT22;50101;49.438;11.098;2023-02-18T17:01:28;19.20;54.20
38237;DHT22;50101;49.438;11.098;2023-02-18T17:03:57;19.20;54.30
38237;DHT22;50101;49.438;11.098;2023-02-18T17:06:24;19.20;54.30
38237;DHT22;50101;49.438;11.098;2023-02-18T17:08:51;19.20;54.30
38237;DHT22;50101;49.438;11.098;2023-02-18T17:13:47;19.20;54.20
38237;DHT22;50101;49.438;11.098;2023-02-18T17:16:15;19.20;54.20
38237;DHT22;50101;49.438;11.098;2023-02-18T17:18:42;19.20;54.20
38237;DHT22;50101;49.438;11.098;2023-02-18T17:21:18;19.20;54.20
38237;DHT22;50101;49.438;11.098;2023-02-18T17:23:45;19.20;54.20
38237;DHT22;50101;49.438;11.098;2023-02-18T17:26:21;19.20;54.20
38237;DHT22;50101;49.438;11.098;2023-02-18T17:28:51;19.20;54.30
38237;DHT22;50101;49.438;11.098;2023-02-18T17:31:22;19.20;54.20
38237;DHT22;50101;49.438;11.098;2023-02-18T17:33:52;19.20;54.10
38237;DHT22;50101;49.438;11.098;2023-02-18T17:36:20;19.20;54.10
38237;DHT22;50101;49.438;11.098;2023-02-18T17:38:46;19.20;54.20
38237;DHT22;50101;49.438;11.098;2023-02-18T17:41:13;19.20;54.20
38237;DHT22;50101;49.438;11.098;2023-02-18T17:43:40;19.20;54.20
38237;DHT22;50101;49.438;11.098;2023-02-18T17:46:15;19.20;54.20
38237;DHT22;50101;49.438;11.098;2023-02-18T17:48:43;19.20;54.10
38237;DHT22;50101;49.438;11.098;2023-02-18T17:51:30;19.20;53.60